Savoy, Illinois
Current Conditions -  °F | °C
As of 1:53 AM on Thursday 27 Nov 2014 (Local Time) from KCMI Reporting Station
Clear Clear  
Wind Chill: 13°   Ceiling: Unl
Heat Index: 23°   Visibility: 7mi
Dew Point: 19°   Wind: 9mph
Humidity: 85%   Direction: 340°NNW
Pressure: 30.22"   Gusts: NA
Location:  40.05°N, 88.25°W
Report Text: KCMI 270753Z AUTO 34008KT 7SM CLR M05/M07 A3022 RMK AO2 SLP245 T10501072 $
Loading
Personal Weather Stations






























Interactive Weather Map New forecast layout! Learn more

10-Day Weather Forecast

Advertisements
Track Severe Weather on mobile